Time;durP1;ratioP1;P1;durP2;ratioP2;P2;SDS_P1;SDS_P2;PMS_P1;PMS_P2;Temp;Humidity;BMP_temperature;BMP_pressure;BME280_temperature;BME280_humidity;BME280_pressure;Samples;Min_cycle;Max_cycle;Signal;HPM_P1;HPM_P2
2023/10/22 00:00:23;;;;;;;10.30;6.43;;;;;;;13.04;82.58;96433.78;5135553;27;20141;-63
2023/10/22 00:02:50;;;;;;;13.43;7.18;;;;;;;12.96;82.85;96437.66;5135554;27;20070;-63
2023/10/22 00:05:17;;;;;;;19.45;7.22;;;;;;;12.86;82.77;96423.28;5135627;27;20130;-63
2023/10/22 00:07:44;;;;;;;12.48;7.43;;;;;;;12.83;83.93;96437.41;5135575;27;20055;-64
2023/10/22 00:10:11;;;;;;;20.02;7.60;;;;;;;12.75;84.42;96429.91;5135459;27;20166;-63
2023/10/22 00:12:38;;;;;;;18.98;7.25;;;;;;;12.70;84.95;96421.38;5135516;27;20125;-62
2023/10/22 00:15:06;;;;;;;18.00;8.38;;;;;;;12.68;86.17;96428.50;5135583;27;20170;-63
2023/10/22 00:17:35;;;;;;;23.13;7.47;;;;;;;12.68;85.77;96427.66;5135374;27;20043;-62
2023/10/22 00:20:02;;;;;;;17.45;7.60;;;;;;;12.71;85.48;96438.00;5135202;27;20047;-62
2023/10/22 00:22:29;;;;;;;18.70;7.70;;;;;;;12.71;85.16;96432.75;5135227;27;20118;-63
2023/10/22 00:24:57;;;;;;;15.98;7.20;;;;;;;12.73;85.07;96433.50;5135075;27;20456;-62
2023/10/22 00:27:24;;;;;;;11.80;7.03;;;;;;;12.74;84.27;96429.97;5135084;27;20121;-63
2023/10/22 00:29:51;;;;;;;14.63;6.72;;;;;;;12.74;83.50;96422.09;5135072;27;20419;-62
2023/10/22 00:32:18;;;;;;;19.00;7.30;;;;;;;12.73;83.51;96431.75;5134187;27;20047;-63
2023/10/22 00:34:47;;;;;;;14.57;7.15;;;;;;;12.74;83.45;96427.34;5135060;27;20061;-62
2023/10/22 00:37:14;;;;;;;12.65;6.95;;;;;;;12.74;85.46;96416.84;5134914;27;20489;-63
2023/10/22 00:39:41;;;;;;;20.10;9.10;;;;;;;12.68;88.89;96410.13;5134822;27;20100;-63
2023/10/22 00:42:08;;;;;;;19.73;7.70;;;;;;;12.74;88.60;96416.84;5134751;27;20047;-64
2023/10/22 00:44:36;;;;;;;19.40;8.02;;;;;;;12.64;88.95;96411.19;5134789;27;20074;-63
2023/10/22 00:47:03;;;;;;;20.75;8.48;;;;;;;12.65;89.32;96412.91;5134856;27;20047;-63
2023/10/22 00:49:31;;;;;;;15.35;8.10;;;;;;;12.77;90.24;96421.97;5134910;27;20073;-63
2023/10/22 00:51:59;;;;;;;24.15;7.88;;;;;;;12.82;88.64;96433.06;5134704;27;20130;-63
2023/10/22 00:54:28;;;;;;;24.42;8.02;;;;;;;12.85;88.36;96439.94;5134535;27;20086;-63
2023/10/22 00:56:56;;;;;;;14.20;7.57;;;;;;;12.87;87.61;96454.72;5134530;27;20389;-62
2023/10/22 00:59:24;;;;;;;14.38;7.95;;;;;;;12.89;86.30;96452.84;5134626;27;20075;-62
2023/10/22 01:01:51;;;;;;;13.13;7.38;;;;;;;12.82;85.78;96438.31;5134536;27;20047;-62
2023/10/22 01:04:18;;;;;;;18.00;7.88;;;;;;;12.79;86.41;96442.88;5134452;27;20047;-62
2023/10/22 01:06:46;;;;;;;19.52;8.48;;;;;;;12.77;86.45;96449.03;5134320;27;20493;-62
2023/10/22 01:09:16;;;;;;;10.30;7.38;;;;;;;12.80;86.11;96439.31;5134143;27;20089;-62
2023/10/22 01:11:58;;;;;;;16.42;7.38;;;;;;;12.77;85.85;96432.47;5134372;27;20401;-61
2023/10/22 01:14:25;;;;;;;17.15;7.45;;;;;;;12.74;85.48;96433.44;5134167;27;20446;-62
2023/10/22 01:16:52;;;;;;;16.17;7.18;;;;;;;12.73;85.56;96430.88;5134196;27;20043;-63
2023/10/22 01:19:19;;;;;;;13.82;7.60;;;;;;;12.69;85.87;96443.31;5134279;27;20047;-62
2023/10/22 01:21:46;;;;;;;12.50;7.93;;;;;;;12.73;85.89;96444.00;5134269;27;20047;-62
2023/10/22 01:24:15;;;;;;;19.00;7.07;;;;;;;12.73;85.72;96438.75;5134198;27;20047;-62
2023/10/22 01:26:42;;;;;;;19.13;7.35;;;;;;;12.70;86.69;96436.31;5134118;27;20055;-63
2023/10/22 01:29:10;;;;;;;17.27;7.95;;;;;;;12.68;87.00;96440.78;5134081;27;20065;-62
2023/10/22 01:31:37;;;;;;;16.35;7.20;;;;;;;12.67;86.97;96418.91;5134254;27;20476;-62
2023/10/22 01:34:04;;;;;;;15.13;7.43;;;;;;;12.64;87.87;96421.69;5133776;28;20057;-62
2023/10/22 01:36:31;;;;;;;12.35;6.75;;;;;;;12.60;87.19;96434.13;5134068;27;20142;-64
2023/10/22 01:38:58;;;;;;;18.05;8.07;;;;;;;12.54;87.14;96421.28;5134004;28;20130;-63
2023/10/22 01:41:27;;;;;;;22.42;8.45;;;;;;;12.54;88.59;96416.03;5133913;27;20068;-62
2023/10/22 01:43:56;;;;;;;15.57;7.38;;;;;;;12.54;88.01;96425.69;5133968;27;20043;-63
2023/10/22 01:46:23;;;;;;;23.33;8.15;;;;;;;12.47;89.37;96425.13;5138352;27;20508;-63
2023/10/22 01:48:50;;;;;;;11.65;7.05;;;;;;;12.49;89.61;96429.38;5138186;27;20386;-63
2023/10/22 01:51:17;;;;;;;16.33;7.13;;;;;;;12.57;88.81;96433.41;5137939;27;20051;-63
2023/10/22 01:53:44;;;;;;;20.45;7.85;;;;;;;12.58;88.59;96459.56;5137913;27;20091;-62
2023/10/22 01:56:11;;;;;;;19.35;8.85;;;;;;;12.62;88.16;96455.03;5138191;27;20045;-63
2023/10/22 01:58:40;;;;;;;22.45;7.20;;;;;;;12.62;87.64;96463.75;5138150;27;20538;-63
2023/10/22 02:01:07;;;;;;;18.60;8.10;;;;;;;12.61;87.74;96459.44;5137903;27;20039;-63
2023/10/22 02:03:35;;;;;;;14.02;8.20;;;;;;;12.50;88.61;96425.81;5137815;27;20545;-63
2023/10/22 02:06:02;;;;;;;14.43;8.80;;;;;;;12.50;91.79;96446.81;5137718;27;20515;-63
2023/10/22 02:08:30;;;;;;;15.05;7.75;;;;;;;12.57;91.21;96457.88;5137865;27;20050;-62
2023/10/22 02:10:57;;;;;;;19.25;8.20;;;;;;;12.62;91.58;96463.75;5137574;27;20579;-62
2023/10/22 02:13:24;;;;;;;14.98;8.00;;;;;;;12.64;91.09;96440.06;5137614;27;20047;-63
2023/10/22 02:15:52;;;;;;;25.23;9.10;;;;;;;12.70;92.36;96460.75;5137561;27;20051;-63
2023/10/22 02:18:19;;;;;;;18.67;7.80;;;;;;;12.77;90.70;96456.91;5137580;27;20047;-62
2023/10/22 02:20:55;;;;;;;18.70;8.00;;;;;;;12.79;89.62;96459.47;5137501;27;20055;-63
2023/10/22 02:23:23;;;;;;;14.98;7.70;;;;;;;12.75;89.32;96465.78;5137446;27;20050;-64
2023/10/22 02:25:50;;;;;;;21.08;7.38;;;;;;;12.75;89.08;96465.78;5137505;27;20040;-63
2023/10/22 02:28:17;;;;;;;17.73;7.60;;;;;;;12.79;88.71;96469.97;5137518;27;20054;-64
2023/10/22 02:30:47;;;;;;;14.82;7.90;;;;;;;12.81;88.25;96467.25;5137375;27;20074;-62
2023/10/22 02:33:16;;;;;;;20.90;7.45;;;;;;;12.80;88.09;96462.94;5137225;27;20190;-63
2023/10/22 02:35:44;;;;;;;15.07;7.55;;;;;;;12.75;87.81;96466.66;5137264;27;20126;-63
2023/10/22 02:38:14;;;;;;;22.40;7.63;;;;;;;12.68;87.89;96454.75;5137283;27;20129;-63
2023/10/22 02:40:41;;;;;;;15.60;8.50;;;;;;;12.69;88.16;96466.06;5137144;27;20043;-63
2023/10/22 02:43:08;;;;;;;13.60;7.72;;;;;;;12.72;88.72;96469.41;5137017;27;20267;-63
2023/10/22 02:45:35;;;;;;;15.63;7.07;;;;;;;12.70;88.07;96459.94;5137030;27;20500;-63
2023/10/22 02:48:03;;;;;;;12.57;7.55;;;;;;;12.67;88.60;96449.56;5137029;27;20075;-62
2023/10/22 02:50:31;;;;;;;17.08;8.45;;;;;;;12.68;88.88;96448.63;5137059;27;20043;-63
2023/10/22 02:52:58;;;;;;;18.90;7.95;;;;;;;12.71;88.94;96448.50;5136953;27;20093;-63
2023/10/22 02:55:25;;;;;;;15.60;8.65;;;;;;;12.75;89.67;96457.91;5136207;27;20130;-63
2023/10/22 02:57:52;;;;;;;19.00;9.75;;;;;;;12.81;91.22;96462.00;5136854;27;20047;-63
2023/10/22 03:00:20;;;;;;;16.92;8.63;;;;;;;12.86;94.13;96455.63;5136777;27;20047;-64
2023/10/22 03:02:47;;;;;;;16.15;8.77;;;;;;;12.91;93.85;96451.94;5136733;27;20047;-63
2023/10/22 03:05:14;;;;;;;15.50;7.03;;;;;;;12.87;91.58;96452.09;5136659;27;20104;-64
2023/10/22 03:07:42;;;;;;;21.67;9.20;;;;;;;12.84;92.53;96451.38;5136607;27;20143;-63
2023/10/22 03:10:10;;;;;;;16.55;8.43;;;;;;;12.88;91.94;96440.66;5136637;27;20498;-63
2023/10/22 03:12:37;;;;;;;14.93;7.15;;;;;;;12.91;91.27;96444.88;5136711;27;20050;-64
2023/10/22 03:15:06;;;;;;;15.77;8.00;;;;;;;12.94;90.29;96441.28;5136524;27;20130;-63
2023/10/22 03:17:34;;;;;;;17.88;7.65;;;;;;;12.95;90.01;96445.59;5136489;27;20055;-63
2023/10/22 03:20:03;;;;;;;13.57;7.70;;;;;;;12.95;93.34;96442.97;5136414;27;20043;-63
2023/10/22 03:22:31;;;;;;;16.05;7.97;;;;;;;12.97;92.68;96435.84;5136469;27;20122;-62
2023/10/22 03:24:59;;;;;;;13.90;7.43;;;;;;;12.99;90.27;96453.25;5136264;27;20047;-62
2023/10/22 03:27:27;;;;;;;15.32;7.50;;;;;;;12.94;89.62;96457.03;5136285;27;20050;-63
2023/10/22 03:29:54;;;;;;;13.57;7.60;;;;;;;12.93;89.77;96450.06;5136248;27;20043;-63
2023/10/22 03:32:21;;;;;;;15.60;8.27;;;;;;;12.95;90.13;96446.47;5135943;27;20404;-63
2023/10/22 03:34:49;;;;;;;19.48;7.72;;;;;;;13.00;90.29;96441.81;5136245;27;20134;-64
2023/10/22 03:37:16;;;;;;;11.07;7.00;;;;;;;13.04;89.76;96449.53;5136083;27;20083;-63
2023/10/22 03:39:43;;;;;;;13.25;6.80;;;;;;;13.05;88.55;96446.00;5135961;27;20047;-63
2023/10/22 03:42:12;;;;;;;17.52;8.18;;;;;;;12.98;88.58;96429.69;5135985;27;20049;-62
2023/10/22 03:44:39;;;;;;;16.45;7.38;;;;;;;12.98;89.58;96442.84;5135858;27;20039;-63
2023/10/22 03:47:06;;;;;;;15.32;8.18;;;;;;;12.93;90.89;96444.81;5135951;27;20103;-63
2023/10/22 03:49:33;;;;;;;13.65;7.65;;;;;;;12.98;91.64;96467.28;5135833;27;20131;-61
2023/10/22 03:52:00;;;;;;;16.05;7.63;;;;;;;12.99;91.44;96490.00;5135648;27;20051;-63
2023/10/22 03:54:27;;;;;;;14.98;8.50;;;;;;;13.02;90.72;96483.75;5135507;27;20507;-61
2023/10/22 03:56:54;;;;;;;18.73;8.60;;;;;;;13.04;90.92;96489.78;5135723;27;20089;-62
2023/10/22 03:59:23;;;;;;;14.20;8.38;;;;;;;13.04;90.56;96486.31;5135817;27;20051;-63
2023/10/22 04:01:51;;;;;;;15.45;8.60;;;;;;;13.06;90.29;96487.09;5135572;27;20050;-62
2023/10/22 04:04:18;;;;;;;16.50;8.32;;;;;;;13.09;89.70;96482.53;5135517;27;20070;-63
2023/10/22 04:06:45;;;;;;;20.13;7.25;;;;;;;12.93;89.73;96490.31;5134611;27;20488;-64
2023/10/22 04:09:12;;;;;;;21.20;9.05;;;;;;;12.82;90.40;96495.22;5135336;27;20039;-63
2023/10/22 04:11:39;;;;;;;17.20;8.43;;;;;;;12.90;91.82;96464.19;5135351;27;20169;-64
2023/10/22 04:14:06;;;;;;;18.05;7.95;;;;;;;12.88;92.22;96472.16;5135313;27;20099;-63
2023/10/22 04:16:35;;;;;;;22.60;7.55;;;;;;;12.91;91.66;96450.13;5135367;27;20054;-64
2023/10/22 04:19:02;;;;;;;19.17;8.30;;;;;;;12.91;93.53;96458.03;5135344;27;20100;-64
2023/10/22 04:21:30;;;;;;;14.48;8.52;;;;;;;12.96;94.98;96457.78;5135229;27;20043;-62
2023/10/22 04:23:57;;;;;;;22.92;8.43;;;;;;;13.00;95.64;96448.84;5135103;27;20070;-61
2023/10/22 04:26:24;;;;;;;15.23;8.00;;;;;;;13.00;95.17;96438.34;5135275;27;20051;-62
2023/10/22 04:28:52;;;;;;;16.70;8.40;;;;;;;13.01;95.38;96440.06;5134932;27;20047;-64
2023/10/22 04:31:20;;;;;;;20.15;8.20;;;;;;;13.04;94.89;96432.03;5135135;27;20055;-63
2023/10/22 04:33:49;;;;;;;16.65;8.65;;;;;;;13.06;94.21;96434.56;5134695;27;20094;-62
2023/10/22 04:36:17;;;;;;;12.75;8.88;;;;;;;13.10;94.30;96442.19;5134877;27;20462;-62
2023/10/22 04:38:44;;;;;;;14.88;7.85;;;;;;;13.18;93.81;96425.25;5134867;27;20138;-63
2023/10/22 04:41:11;;;;;;;24.67;8.35;;;;;;;13.25;93.39;96437.13;5134962;27;20087;-62
2023/10/22 04:43:39;;;;;;;20.80;8.10;;;;;;;13.24;93.47;96441.53;5134796;27;20043;-61
2023/10/22 04:46:06;;;;;;;16.98;8.40;;;;;;;13.23;94.06;96433.72;5134856;27;20047;-62
2023/10/22 04:48:33;;;;;;;23.92;8.50;;;;;;;13.25;94.13;96439.75;5134711;27;20053;-61
2023/10/22 04:51:07;;;;;;;14.52;7.40;;;;;;;13.34;93.41;96451.56;5134776;27;20051;-61
2023/10/22 04:53:34;;;;;;;22.23;7.47;;;;;;;13.38;91.49;96467.09;5134600;27;20122;-63
2023/10/22 04:56:02;;;;;;;18.33;8.02;;;;;;;13.39;90.01;96473.19;5134491;27;20047;-63
2023/10/22 04:58:30;;;;;;;19.42;7.20;;;;;;;13.36;89.40;96473.34;5134623;27;20130;-62
2023/10/22 05:00:58;;;;;;;14.68;7.82;;;;;;;13.31;89.50;96475.38;5134575;27;20043;-62
2023/10/22 05:03:25;;;;;;;14.65;8.50;;;;;;;13.31;90.05;96476.22;5134391;27;20396;-62
2023/10/22 05:05:52;;;;;;;22.55;8.40;;;;;;;13.30;89.35;96477.13;5134414;27;20408;-62
2023/10/22 05:08:23;;;;;;;22.67;7.65;;;;;;;13.19;89.42;96482.06;5134385;27;20051;-62
2023/10/22 05:10:51;;;;;;;18.75;8.65;;;;;;;13.14;89.71;96490.19;5134268;27;20108;-63
2023/10/22 05:13:22;;;;;;;19.13;8.65;;;;;;;13.13;91.11;96499.81;5134348;27;20051;-62
2023/10/22 05:15:54;;;;;;;;;;;;;;;13.20;90.93;96486.41;5134716;27;20078;-63
2023/10/22 05:18:22;;;;;;;15.48;8.43;;;;;;;13.21;90.49;96512.59;5134065;27;19969;-61
2023/10/22 05:20:49;;;;;;;11.13;7.18;;;;;;;13.18;90.22;96496.97;5134260;27;20070;-62
2023/10/22 05:23:18;;;;;;;14.18;7.43;;;;;;;13.27;90.33;96493.03;5134172;27;20047;-64
2023/10/22 05:25:47;;;;;;;18.88;8.07;;;;;;;13.27;90.62;96503.56;5134285;27;20047;-62
2023/10/22 05:28:14;;;;;;;19.85;7.47;;;;;;;13.31;90.42;96496.38;5134190;27;20047;-61
2023/10/22 05:30:42;;;;;;;20.67;8.27;;;;;;;13.21;90.42;96488.09;5134083;27;20126;-62
2023/10/22 05:33:09;;;;;;;16.42;7.78;;;;;;;13.29;91.72;96483.31;5133816;27;20047;-63
2023/10/22 05:35:37;;;;;;;13.32;6.88;;;;;;;13.37;91.40;96478.53;5134021;27;20104;-63
2023/10/22 05:38:04;;;;;;;12.90;7.57;;;;;;;13.43;90.55;96477.38;5134128;27;20043;-61
2023/10/22 05:40:37;;;;;;;17.25;8.07;;;;;;;13.49;94.23;96465.72;5133895;28;20403;-62
2023/10/22 05:43:05;;;;;;;16.40;7.75;;;;;;;13.52;94.49;96457.69;5134199;27;20051;-62
2023/10/22 05:45:33;;;;;;;16.70;8.45;;;;;;;13.64;94.61;96450.97;5134001;27;20130;-64
2023/10/22 05:48:01;;;;;;;19.88;8.13;;;;;;;13.71;93.98;96460.22;5133873;27;20481;-64
2023/10/22 05:50:28;;;;;;;18.02;7.50;;;;;;;13.82;94.14;96454.38;5133874;27;20051;-64
2023/10/22 05:52:56;;;;;;;18.95;8.02;;;;;;;14.03;94.50;96476.06;5133929;27;20043;-61
2023/10/22 05:55:23;;;;;;;15.45;7.05;;;;;;;14.17;93.10;96485.00;5133848;27;20043;-63
2023/10/22 05:57:50;;;;;;;15.95;6.97;;;;;;;14.30;92.28;96522.03;5133920;27;20059;-62
2023/10/22 06:00:19;;;;;;;18.67;7.93;;;;;;;14.34;89.47;96504.31;5133927;28;20125;-63
2023/10/22 06:02:47;;;;;;;13.88;7.28;;;;;;;14.47;87.99;96522.91;5133852;27;20118;-63
2023/10/22 06:05:15;;;;;;;11.18;6.28;;;;;;;14.60;87.08;96534.47;5133717;27;20047;-63
2023/10/22 06:07:42;;;;;;;17.17;7.90;;;;;;;14.93;86.88;96514.28;5133792;27;20494;-62
2023/10/22 06:10:11;;;;;;;16.20;7.63;;;;;;;15.20;84.63;96541.81;5133628;27;20051;-63
2023/10/22 06:12:39;;;;;;;18.90;8.13;;;;;;;15.34;83.50;96485.66;5133839;27;20476;-63
2023/10/22 06:15:09;;;;;;;13.32;7.63;;;;;;;15.49;83.55;96521.69;5133817;27;20126;-63
2023/10/22 06:17:38;;;;;;;16.67;9.13;;;;;;;15.57;82.90;96481.69;5133894;27;20047;-61
2023/10/22 06:20:07;;;;;;;15.07;7.60;;;;;;;15.69;82.76;96479.25;5133629;27;20039;-63
2023/10/22 06:22:34;;;;;;;12.68;7.32;;;;;;;15.83;82.80;96474.00;5133682;27;20130;-62
2023/10/22 06:25:02;;;;;;;18.52;7.97;;;;;;;15.98;82.33;96484.59;5133658;28;20477;-63
2023/10/22 06:27:30;;;;;;;13.98;7.20;;;;;;;16.13;82.87;96496.84;5133487;27;20559;-61
2023/10/22 06:29:57;;;;;;;13.75;6.82;;;;;;;16.20;78.98;96546.63;5133528;27;20043;-63
2023/10/22 06:32:24;;;;;;;11.45;6.22;;;;;;;16.14;77.47;96511.72;5137331;27;20043;-61
2023/10/22 06:34:53;;;;;;;17.90;6.22;;;;;;;16.27;76.43;96525.03;5137267;27;20104;-64
2023/10/22 06:37:20;;;;;;;16.30;5.68;;;;;;;16.49;72.18;96507.00;5137218;27;20043;-63
2023/10/22 06:39:47;;;;;;;17.25;5.80;;;;;;;16.74;72.19;96523.97;5137213;27;20055;-62
2023/10/22 06:42:14;;;;;;;10.23;5.68;;;;;;;17.10;71.96;96514.63;5137062;27;20134;-62
2023/10/22 06:44:43;;;;;;;22.90;6.65;;;;;;;17.50;70.69;96526.19;5137054;27;20100;-62
2023/10/22 06:47:11;;;;;;;17.55;5.80;;;;;;;17.78;68.94;96504.03;5137419;27;20130;-64
2023/10/22 06:49:39;;;;;;;12.93;5.57;;;;;;;18.04;66.90;96505.84;5136895;27;20047;-64
2023/10/22 06:52:08;;;;;;;15.68;5.20;;;;;;;18.48;66.59;96498.41;5137037;27;20043;-63
2023/10/22 06:54:35;;;;;;;16.73;5.37;;;;;;;18.91;65.40;96514.84;5137022;27;20055;-65
2023/10/22 06:57:03;;;;;;;16.02;5.43;;;;;;;19.20;65.04;96522.47;5136898;27;20108;-61
2023/10/22 06:59:30;;;;;;;14.43;4.97;;;;;;;19.35;64.80;96512.53;5136975;27;20077;-63
2023/10/22 07:01:58;;;;;;;18.00;5.10;;;;;;;19.36;64.59;96500.16;5136856;27;20389;-64
2023/10/22 07:04:25;;;;;;;11.65;5.10;;;;;;;19.34;64.66;96494.09;5136695;27;20047;-64
2023/10/22 07:06:53;;;;;;;18.00;5.78;;;;;;;19.27;64.78;96499.84;5136647;27;20051;-64
2023/10/22 07:09:22;;;;;;;15.57;4.85;;;;;;;19.13;64.42;96498.25;5136508;27;20071;-63
2023/10/22 07:11:50;;;;;;;8.70;4.85;;;;;;;19.05;65.25;96514.66;5136514;27;20079;-64
2023/10/22 07:14:17;;;;;;;13.68;5.53;;;;;;;19.02;66.32;96511.41;5136611;27;20546;-64
2023/10/22 07:16:45;;;;;;;20.25;6.03;;;;;;;19.05;65.84;96513.81;5136618;27;20052;-64
2023/10/22 07:19:13;;;;;;;16.00;7.05;;;;;;;19.10;66.18;96519.66;5136652;27;20077;-64
2023/10/22 07:21:40;;;;;;;18.42;6.43;;;;;;;19.11;66.07;96517.88;5136462;27;20046;-64
2023/10/22 07:24:09;;;;;;;13.68;6.45;;;;;;;19.22;65.85;96511.75;5136295;27;20047;-62
2023/10/22 07:26:38;;;;;;;13.15;5.85;;;;;;;19.53;65.49;96504.16;5136355;27;20051;-62
2023/10/22 07:29:05;;;;;;;16.02;5.75;;;;;;;19.83;63.17;96508.97;5136396;27;20047;-63
2023/10/22 07:31:33;;;;;;;16.45;5.05;;;;;;;20.01;62.19;96497.94;5136301;27;20047;-62
2023/10/22 07:34:01;;;;;;;17.13;6.38;;;;;;;20.12;61.69;96498.91;5136013;27;20077;-63
2023/10/22 07:36:28;;;;;;;13.27;5.68;;;;;;;20.23;61.30;96509.56;5136174;27;20047;-63
2023/10/22 07:38:56;;;;;;;20.15;5.93;;;;;;;20.37;60.33;96496.97;5136125;27;20051;-64
2023/10/22 07:41:24;;;;;;;16.08;5.95;;;;;;;20.50;59.63;96505.66;5135854;27;20047;-65
2023/10/22 07:43:53;;;;;;;14.80;6.90;;;;;;;20.59;60.06;96509.44;5136000;27;20415;-61
2023/10/22 07:46:24;;;;;;;15.02;6.53;;;;;;;20.73;59.74;96504.81;5135812;27;20050;-63
2023/10/22 07:48:53;;;;;;;16.20;7.25;;;;;;;20.86;59.46;96504.69;5135880;27;20043;-62
2023/10/22 07:51:21;;;;;;;15.60;6.35;;;;;;;20.98;59.58;96510.84;5135814;27;20051;-63
2023/10/22 07:53:52;;;;;;;14.60;6.40;;;;;;;21.11;59.41;96510.69;5135927;27;20043;-63
2023/10/22 07:56:24;;;;;;;12.93;5.72;;;;;;;21.30;58.99;96526.81;5135832;27;20489;-63
2023/10/22 07:58:57;;;;;;;14.90;6.10;;;;;;;21.57;58.02;96525.53;5135804;27;20495;-64
2023/10/22 08:01:24;;;;;;;15.73;7.10;;;;;;;22.00;56.62;96524.72;5135667;27;20068;-65
2023/10/22 08:03:54;;;;;;;13.88;5.13;;;;;;;22.34;54.90;96527.16;5135582;27;20047;-62
2023/10/22 08:06:21;;;;;;;13.13;5.40;;;;;;;22.80;54.25;96530.31;5135607;27;20104;-63
2023/10/22 08:08:54;;;;;;;13.98;5.22;;;;;;;23.30;52.90;96533.91;5135588;27;20450;-62
2023/10/22 08:11:23;;;;;;;12.63;5.40;;;;;;;23.72;51.08;96524.00;5135525;27;20504;-62
2023/10/22 08:13:54;;;;;;;15.55;5.53;;;;;;;24.12;50.37;96524.78;5135415;27;20051;-63
2023/10/22 08:16:23;;;;;;;12.90;4.85;;;;;;;24.41;49.21;96510.50;5135286;27;20099;-62
2023/10/22 08:18:51;;;;;;;16.92;5.05;;;;;;;24.63;48.35;96510.28;5135332;27;20508;-65
2023/10/22 08:21:19;;;;;;;11.80;4.63;;;;;;;24.76;48.02;96504.56;5135285;27;20046;-62
2023/10/22 08:23:47;;;;;;;16.48;4.78;;;;;;;24.68;47.05;96508.84;5135254;27;20043;-63
2023/10/22 08:26:14;;;;;;;13.88;5.32;;;;;;;24.57;47.28;96512.56;5135175;27;20507;-64
2023/10/22 08:28:41;;;;;;;16.60;4.80;;;;;;;24.53;47.70;96511.16;5135084;27;20055;-63
2023/10/22 08:31:10;;;;;;;15.57;4.95;;;;;;;24.42;48.01;96514.88;5134999;27;20047;-65
2023/10/22 08:33:37;;;;;;;15.23;5.15;;;;;;;24.34;48.53;96504.06;5134762;27;20508;-64
2023/10/22 08:36:06;;;;;;;9.38;4.78;;;;;;;24.17;48.53;96509.16;5134886;27;20051;-63
2023/10/22 08:38:33;;;;;;;16.55;4.80;;;;;;;24.13;48.79;96512.25;5134850;27;20047;-63
2023/10/22 08:41:02;;;;;;;17.77;4.72;;;;;;;24.13;48.94;96514.91;5134944;27;20043;-64
2023/10/22 08:43:32;;;;;;;17.00;5.13;;;;;;;24.03;48.73;96518.47;5134720;27;20080;-62
2023/10/22 08:45:59;;;;;;;;;;;;;;;24.15;48.49;96521.00;5135268;27;20047;-63
2023/10/22 08:48:30;;;;;;;14.52;4.47;;;;;;;24.30;48.83;96516.88;5134830;27;19926;-64
2023/10/22 08:50:59;;;;;;;14.02;5.00;;;;;;;24.44;48.13;96514.72;5134700;27;20118;-64
2023/10/22 08:53:26;;;;;;;16.98;4.70;;;;;;;24.54;47.50;96522.69;5134131;27;20541;-64
2023/10/22 08:55:56;;;;;;;18.60;4.90;;;;;;;24.66;47.41;96518.84;5134596;27;20051;-64
2023/10/22 08:58:23;;;;;;;18.38;5.50;;;;;;;24.73;46.85;96525.28;5134585;27;20051;-63
2023/10/22 09:00:52;;;;;;;14.13;4.65;;;;;;;24.74;47.19;96513.59;5134608;27;20047;-63
2023/10/22 09:03:21;;;;;;;13.90;4.20;;;;;;;24.89;46.56;96509.63;5134377;27;20084;-61
2023/10/22 09:05:51;;;;;;;11.73;4.75;;;;;;;25.05;46.90;96514.31;5134512;27;20043;-64
2023/10/22 09:08:18;;;;;;;18.23;4.53;;;;;;;25.14;46.02;96517.91;5134538;27;20193;-64
2023/10/22 09:10:45;;;;;;;16.63;4.80;;;;;;;24.74;45.80;96510.06;5134355;27;20046;-63
2023/10/22 09:13:15;;;;;;;16.08;5.13;;;;;;;24.77;45.06;96504.44;5134303;27;20395;-64
2023/10/22 09:15:43;;;;;;;18.20;4.77;;;;;;;24.85;46.70;96503.69;5134201;27;20049;-63
2023/10/22 09:18:11;;;;;;;13.07;4.88;;;;;;;25.03;46.48;96511.78;5134144;27;20759;-64
2023/10/22 09:20:39;;;;;;;14.82;4.63;;;;;;;25.11;45.24;96503.84;5134181;27;20399;-61
2023/10/22 09:23:18;;;;;;;12.77;4.20;;;;;;;25.30;45.70;96502.03;5134282;27;20548;-63
2023/10/22 09:25:48;;;;;;;14.40;4.38;;;;;;;25.43;45.23;96508.84;5134236;27;20047;-62
2023/10/22 09:28:21;;;;;;;20.77;4.63;;;;;;;25.57;45.07;96502.09;5134163;27;20484;-63
2023/10/22 09:30:48;;;;;;;25.73;4.90;;;;;;;25.60;44.41;96491.09;5134223;27;20047;-65
2023/10/22 09:33:19;;;;;;;22.88;5.03;;;;;;;25.67;44.48;96497.53;5133911;27;20051;-64
2023/10/22 09:35:58;;;;;;;;;;;;;;;25.66;44.14;96484.28;5134463;28;20228;-62
2023/10/22 09:38:41;;;;;;;15.00;5.00;;;;;;;25.55;44.52;96478.16;5134062;27;19920;-65
2023/10/22 09:41:11;;;;;;;19.95;4.68;;;;;;;25.48;43.98;96477.94;5134044;28;20049;-63
2023/10/22 09:43:38;;;;;;;12.57;4.82;;;;;;;25.49;43.48;96479.63;5134042;27;20047;-64
2023/10/22 09:46:07;;;;;;;16.35;5.00;;;;;;;25.42;44.00;96473.19;5134065;27;20484;-62
2023/10/22 09:48:36;;;;;;;14.05;5.10;;;;;;;25.33;44.72;96472.28;5133940;28;20054;-64
2023/10/22 09:51:06;;;;;;;14.88;4.90;;;;;;;25.20;44.43;96461.94;5133961;27;20507;-65
2023/10/22 09:53:40;;;;;;;12.65;5.15;;;;;;;25.26;44.95;96471.22;5133940;27;20458;-62
2023/10/22 09:56:12;;;;;;;16.10;4.53;;;;;;;25.03;43.80;96471.66;5133782;27;20047;-61
2023/10/22 09:58:45;;;;;;;15.55;4.57;;;;;;;24.68;44.35;96466.06;5133783;27;20054;-63
2023/10/22 10:01:14;;;;;;;14.05;4.88;;;;;;;24.59;45.07;96462.44;5133810;27;20039;-64
2023/10/22 10:03:42;;;;;;;13.07;4.88;;;;;;;24.72;46.68;96454.06;5133807;28;20508;-64
2023/10/22 10:06:11;;;;;;;12.60;4.75;;;;;;;24.91;46.16;96451.47;5135786;27;20050;-63
2023/10/22 10:08:40;;;;;;;18.58;5.15;;;;;;;25.02;45.46;96461.09;5137786;27;20100;-64
2023/10/22 10:11:10;;;;;;;16.50;5.13;;;;;;;25.11;44.50;96462.88;5137828;27;20057;-61
2023/10/22 10:13:37;;;;;;;18.10;5.10;;;;;;;24.95;45.32;96452.88;5137734;27;20047;-63
2023/10/22 10:16:06;;;;;;;17.38;5.20;;;;;;;25.03;45.38;96447.59;5137644;27;20050;-64
2023/10/22 10:19:08;;;;;;;14.75;5.90;;;;;;;24.69;46.24;96441.03;5137661;27;20054;-63
2023/10/22 10:21:44;;;;;;;14.13;4.63;;;;;;;24.74;45.75;96436.06;5137672;27;20453;-63
2023/10/22 10:24:20;;;;;;;14.75;5.25;;;;;;;24.34;46.32;96438.09;5137543;27;20069;-62
2023/10/22 10:26:50;;;;;;;20.48;5.13;;;;;;;24.40;46.60;96441.16;5137388;27;20096;-65
2023/10/22 10:29:18;;;;;;;20.25;5.53;;;;;;;24.54;47.07;96439.84;5137477;27;20054;-63
2023/10/22 10:31:47;;;;;;;8.75;4.57;;;;;;;24.64;46.74;96439.78;5137287;27;20051;-64
2023/10/22 10:34:26;;;;;;;16.75;6.07;;;;;;;24.70;45.67;96429.31;5137179;27;20051;-62
2023/10/22 10:36:55;;;;;;;18.10;6.10;;;;;;;24.64;46.04;96437.94;5137100;27;20082;-65
2023/10/22 10:39:42;;;;;;;14.25;5.05;;;;;;;24.52;47.04;96425.75;5137272;27;20104;-61
2023/10/22 10:42:10;;;;;;;16.05;4.97;;;;;;;24.55;46.78;96429.00;5137141;27;20058;-64
2023/10/22 10:45:07;;;;;;;14.88;5.40;;;;;;;24.68;47.20;96412.59;5137604;27;20050;-62
2023/10/22 10:47:39;;;;;;;14.30;5.25;;;;;;;24.78;46.78;96404.53;5137162;27;20126;-61
2023/10/22 10:50:10;;;;;;;20.70;5.63;;;;;;;24.86;47.19;96398.38;5137122;27;20052;-63
2023/10/22 10:53:00;;;;;;;9.88;5.45;;;;;;;24.87;46.09;96402.78;5137173;27;20047;-65
2023/10/22 10:55:35;;;;;;;22.25;5.50;;;;;;;24.84;46.34;96397.72;5137100;27;20047;-63
2023/10/22 10:58:03;;;;;;;14.75;5.32;;;;;;;24.78;45.94;96398.31;5136781;27;20129;-64
2023/10/22 11:00:32;;;;;;;16.92;5.80;;;;;;;24.63;46.79;96401.50;5137010;27;20055;-64
2023/10/22 11:03:02;;;;;;;15.35;4.72;;;;;;;24.71;46.45;96393.56;5136914;27;20039;-63
2023/10/22 11:05:37;;;;;;;17.93;5.77;;;;;;;24.76;46.99;96382.41;5136949;27;20096;-65
2023/10/22 11:08:06;;;;;;;16.05;5.03;;;;;;;24.71;47.07;96390.06;5136713;27;20043;-63
2023/10/22 11:10:35;;;;;;;11.90;4.93;;;;;;;24.77;46.70;96388.63;5136745;27;20485;-62
2023/10/22 11:13:04;;;;;;;16.30;5.30;;;;;;;24.66;46.59;96385.19;5136575;27;20058;-63
2023/10/22 11:15:34;;;;;;;14.77;5.00;;;;;;;24.67;47.01;96386.84;5136479;27;20046;-62
2023/10/22 11:18:03;;;;;;;13.80;5.30;;;;;;;24.72;47.11;96370.34;5136125;27;20121;-64
2023/10/22 11:20:31;;;;;;;12.38;5.40;;;;;;;24.79;46.87;96368.75;5136465;27;20108;-64
2023/10/22 11:22:59;;;;;;;16.25;5.75;;;;;;;24.74;46.70;96371.88;5136304;27;20409;-63
2023/10/22 11:25:28;;;;;;;16.60;5.10;;;;;;;24.86;46.66;96366.28;5136387;27;20047;-61
2023/10/22 11:27:58;;;;;;;14.48;4.95;;;;;;;24.92;46.87;96359.56;5136431;27;20047;-63
2023/10/22 11:30:36;;;;;;;;;;;;;;;24.92;45.65;96360.38;5136802;27;20484;-62
2023/10/22 11:33:06;;;;;;;18.67;5.15;;;;;;;24.94;46.22;96357.53;5136010;27;19923;-63